Fort Bragg, North Carolina
Current Conditions -  °F | °C
As of 4:58 AM on Friday 24 Oct 2014 (Local Time) from KPOB Reporting Station
Clear Clear  
Wind Chill: 45°   Ceiling: Unl
Heat Index: 45°   Visibility: 10mi
Dew Point: 41°   Wind: 2mph
Humidity: 86%   Direction: 290°WNW
Pressure: 30.01"   Gusts: NA
Location:  35.14°N, 79°W
Report Text: KPOB 240858Z AUTO 29002KT 10SM CLR 07/05 A3001 RMK AO2 SLP165 T00740052 58001
Loading
Personal Weather Stations






























Interactive Weather Map
Tropical Storm Tracking
New forecast layout! Learn more

10-Day Weather Forecast

Advertisements
Track Severe Weather on mobile